Time;durP1;ratioP1;P1;durP2;ratioP2;P2;SDS_P1;SDS_P2;PMS_P1;PMS_P2;Temp;Humidity;BMP_temperature;BMP_pressure;BME280_temperature;BME280_humidity;BME280_pressure;Samples;Min_cycle;Max_cycle;Signal;HPM_P1;HPM_P2
2023/02/08 00:01:11;;;;;;;16.95;8.40;;;;;;;-2.79;85.22;94033.44;6182271;23;20016;-76
2023/02/08 00:03:36;;;;;;;16.52;9.13;;;;;;;-2.83;84.92;94036.50;6182424;23;20143;-76
2023/02/08 00:06:03;;;;;;;14.75;8.18;;;;;;;-2.88;85.13;94039.56;6155636;23;20025;-76
2023/02/08 00:08:29;;;;;;;19.58;8.18;;;;;;;-2.92;86.00;94042.63;6155819;23;20044;-76
2023/02/08 00:10:55;;;;;;;15.65;7.57;;;;;;;-2.96;86.06;94037.00;6183821;23;20045;-76
2023/02/08 00:13:20;;;;;;;17.73;8.43;;;;;;;-2.97;85.59;94046.47;6157261;23;20044;-76
2023/02/08 00:15:46;;;;;;;14.10;8.07;;;;;;;-2.89;84.69;94043.06;6158069;23;20009;-76
2023/02/08 00:18:12;;;;;;;16.30;8.75;;;;;;;-2.91;85.93;94044.19;6157073;23;20021;-76
2023/02/08 00:20:39;;;;;;;16.95;8.45;;;;;;;-2.89;83.99;94037.94;6183941;23;20298;-76
2023/02/08 00:23:05;;;;;;;16.08;9.02;;;;;;;-2.84;84.28;94048.50;6184784;23;20041;-76
2023/02/08 00:25:31;;;;;;;22.42;9.57;;;;;;;-2.92;84.06;94052.88;6157963;23;20009;-76
2023/02/08 00:27:56;;;;;;;17.98;9.50;;;;;;;-2.99;84.08;94047.59;6183012;23;20013;-77
2023/02/08 00:30:22;;;;;;;16.45;8.85;;;;;;;-3.06;84.33;94050.03;6183159;23;20017;-76
2023/02/08 00:32:48;;;;;;;19.33;10.20;;;;;;;-3.08;84.34;94063.97;6133473;23;20044;-76
2023/02/08 00:35:13;;;;;;;20.90;9.65;;;;;;;-3.10;85.60;94061.56;6157261;23;20008;-76
2023/02/08 00:37:39;;;;;;;17.23;9.45;;;;;;;-3.11;85.64;94054.03;6183040;23;20019;-76
2023/02/08 00:40:05;;;;;;;17.63;9.20;;;;;;;-3.12;85.38;94062.69;6183783;23;20469;-76
2023/02/08 00:42:31;;;;;;;19.35;9.30;;;;;;;-3.11;86.34;94059.94;6133113;23;20013;-76
2023/02/08 00:44:57;;;;;;;16.25;9.27;;;;;;;-3.15;86.25;94064.59;6157447;23;20009;-76
2023/02/08 00:47:23;;;;;;;17.05;9.25;;;;;;;-3.14;86.24;94065.41;6183806;23;20017;-76
2023/02/08 00:49:49;;;;;;;19.02;8.57;;;;;;;-3.17;87.12;94060.63;6183470;23;19997;-76
2023/02/08 00:52:15;;;;;;;18.67;10.25;;;;;;;-3.17;87.11;94069.09;6157093;23;20017;-76
2023/02/08 00:54:42;;;;;;;17.95;9.13;;;;;;;-3.21;87.04;94070.38;6184051;23;20001;-76
2023/02/08 00:57:08;;;;;;;18.30;9.02;;;;;;;-3.26;86.92;94062.38;6183730;23;20013;-76
2023/02/08 00:59:33;;;;;;;16.35;9.65;;;;;;;-3.26;87.54;94062.38;6157801;23;20012;-76
2023/02/08 01:01:59;;;;;;;17.50;9.30;;;;;;;-3.34;88.36;94059.81;6156199;23;20019;-76
2023/02/08 01:04:25;;;;;;;19.48;9.98;;;;;;;-3.32;89.12;94063.03;6157096;23;20044;-76
2023/02/08 01:06:51;;;;;;;21.08;10.43;;;;;;;-3.37;89.90;94070.41;6157435;23;20437;-76
2023/02/08 01:09:16;;;;;;;19.13;9.27;;;;;;;-3.39;90.46;94067.22;6182912;23;20063;-76
2023/02/08 01:11:42;;;;;;;18.50;10.05;;;;;;;-3.49;91.05;94072.50;6183055;23;20053;-76
2023/02/08 01:14:08;;;;;;;17.73;9.77;;;;;;;-3.56;92.18;94069.78;6157384;23;20016;-76
2023/02/08 01:16:36;;;;;;;18.83;9.75;;;;;;;-3.65;93.10;94067.38;6184172;23;20020;-76
2023/02/08 01:19:03;;;;;;;16.55;9.38;;;;;;;-3.66;93.18;94068.34;6157017;23;20001;-76
2023/02/08 01:21:32;;;;;;;18.58;9.68;;;;;;;-3.69;91.79;94073.78;6182228;23;20024;-76
2023/02/08 01:23:58;;;;;;;17.00;9.48;;;;;;;-3.75;92.02;94067.53;6157259;23;20001;-76
2023/02/08 01:26:25;;;;;;;17.35;9.18;;;;;;;-3.79;92.49;94074.72;6183359;23;20057;-76
2023/02/08 01:28:52;;;;;;;18.52;9.48;;;;;;;-3.82;92.70;94071.69;6183155;23;20076;-76
2023/02/08 01:31:21;;;;;;;17.60;9.10;;;;;;;-3.84;92.75;94071.06;6156668;23;20087;-76
2023/02/08 01:33:47;;;;;;;19.27;9.85;;;;;;;-3.86;93.43;94073.78;6130142;23;20459;-76
2023/02/08 01:36:13;;;;;;;19.42;9.75;;;;;;;-3.88;92.88;94067.22;6181404;23;20023;-76
2023/02/08 01:38:41;;;;;;;18.35;9.90;;;;;;;-3.92;93.47;94065.94;6182766;23;20011;-76
2023/02/08 01:41:13;;;;;;;24.95;9.93;;;;;;;-3.95;93.06;94061.13;6156628;23;20017;-76
2023/02/08 01:44:04;;;;;;;15.05;8.93;;;;;;;-4.01;94.47;94057.44;6183018;23;20345;-76
2023/02/08 01:46:35;;;;;;;16.88;8.77;;;;;;;-4.06;93.14;94044.34;6182935;23;20012;-76
2023/02/08 01:49:10;;;;;;;17.20;8.93;;;;;;;-4.07;93.34;94051.22;6182802;23;20511;-76
2023/02/08 01:52:05;;;;;;;19.73;9.25;;;;;;;-4.09;93.48;94048.00;6156803;23;20052;-76
2023/02/08 01:54:37;;;;;;;18.27;9.20;;;;;;;-4.09;93.41;94049.78;6152087;23;20016;-76
2023/02/08 01:57:03;;;;;;;16.00;8.50;;;;;;;-4.15;94.13;94045.28;6182916;23;20016;-76
2023/02/08 01:59:36;;;;;;;16.23;9.27;;;;;;;-4.11;94.65;94052.47;6155758;23;20001;-76
2023/02/08 02:02:06;;;;;;;16.50;8.73;;;;;;;-4.17;95.04;94048.00;6182818;23;20009;-76
2023/02/08 02:04:32;;;;;;;17.10;8.68;;;;;;;-4.18;93.92;94056.63;6156294;23;20016;-76
2023/02/08 02:07:00;;;;;;;19.30;8.85;;;;;;;-4.24;94.03;94052.13;6157101;23;20005;-76
2023/02/08 02:09:54;;;;;;;16.13;8.48;;;;;;;-4.25;94.13;94053.13;6131817;23;20098;-76
2023/02/08 02:12:21;;;;;;;20.58;9.65;;;;;;;-4.27;94.00;94055.81;6156838;23;20044;-76
2023/02/08 02:14:46;;;;;;;18.10;8.65;;;;;;;-4.34;95.14;94044.63;6132221;23;20028;-76
2023/02/08 02:17:15;;;;;;;17.70;9.95;;;;;;;-4.35;95.66;94055.78;6183195;23;20319;-76
2023/02/08 02:19:47;;;;;;;17.05;8.40;;;;;;;-4.40;95.76;94053.69;6182810;23;20080;-76
2023/02/08 02:22:30;;;;;;;15.97;9.37;;;;;;;-4.44;95.82;94047.28;6156955;23;20342;-76
2023/02/08 02:25:15;;;;;;;15.52;8.57;;;;;;;-4.46;95.41;94046.69;6156338;23;20021;-76
2023/02/08 02:28:05;;;;;;;19.88;9.65;;;;;;;-4.51;96.51;94046.31;6182902;23;20012;-76
2023/02/08 02:31:07;;;;;;;15.32;8.13;;;;;;;-4.49;96.42;94048.72;6182499;23;20009;-76
2023/02/08 02:34:00;;;;;;;18.23;8.73;;;;;;;-4.49;96.70;94044.41;6156735;23;20366;-76
2023/02/08 02:36:47;;;;;;;22.25;9.07;;;;;;;-4.48;97.60;94045.22;6182301;23;20096;-76
2023/02/08 02:39:27;;;;;;;17.98;9.98;;;;;;;-4.52;97.16;94049.84;6155829;23;20323;-76
2023/02/08 02:45:23;;;;;;;15.90;8.60;;;;;;;-4.60;98.09;94042.16;6156375;23;20024;-76
2023/02/08 02:48:01;;;;;;;15.77;8.82;;;;;;;-4.64;97.75;94041.69;6155864;23;20017;-76
2023/02/08 02:50:42;;;;;;;17.27;8.85;;;;;;;-4.64;97.61;94046.78;6182246;23;20013;-76
2023/02/08 02:53:11;;;;;;;20.27;9.63;;;;;;;-4.66;97.68;94043.59;6183011;23;20033;-76
2023/02/08 02:55:43;;;;;;;20.17;9.98;;;;;;;-4.67;97.12;94046.28;6155853;23;20344;-76
2023/02/08 02:58:12;;;;;;;17.65;9.48;;;;;;;-4.69;96.61;94056.66;6155960;23;20013;-76
2023/02/08 03:00:38;;;;;;;17.80;9.52;;;;;;;-4.76;97.67;94047.22;6156096;23;20051;-76
2023/02/08 03:03:06;;;;;;;19.23;9.88;;;;;;;-4.72;98.19;94053.63;6182940;23;20044;-76
2023/02/08 03:05:32;;;;;;;18.73;9.32;;;;;;;-4.72;98.35;94053.63;6155503;23;20083;-76
2023/02/08 03:08:10;;;;;;;20.25;9.63;;;;;;;-4.73;98.22;94052.00;6182253;23;20441;-76
2023/02/08 03:10:49;;;;;;;16.02;9.05;;;;;;;-4.75;98.82;94051.34;6155643;23;20358;-76
2023/02/08 03:14:12;;;;;;;22.50;9.55;;;;;;;-4.79;100.00;94048.31;6182733;23;20433;-76
2023/02/08 03:17:09;;;;;;;20.15;8.70;;;;;;;-4.81;100.00;94055.34;6100646;23;20015;-76
2023/02/08 03:19:42;;;;;;;16.35;8.70;;;;;;;-4.87;100.00;94036.31;6182373;23;20437;-76
2023/02/08 03:22:49;;;;;;;18.95;9.63;;;;;;;-4.84;100.00;94041.13;6182841;23;20394;-76
2023/02/08 03:26:00;;;;;;;21.58;9.63;;;;;;;-4.86;100.00;94042.25;6182076;23;20032;-76
2023/02/08 03:28:30;;;;;;;16.77;8.80;;;;;;;-4.85;100.00;94044.63;6155824;23;20020;-76
2023/02/08 03:31:02;;;;;;;18.30;9.23;;;;;;;-4.79;100.00;94042.44;6155119;23;20009;-76
2023/02/08 03:33:37;;;;;;;20.13;9.15;;;;;;;-4.85;100.00;94036.94;6182550;23;20067;-76
2023/02/08 03:36:22;;;;;;;18.10;9.60;;;;;;;-4.82;100.00;94039.22;6156210;23;20104;-76
2023/02/08 03:38:51;;;;;;;18.55;9.20;;;;;;;-4.84;100.00;94038.56;6182384;23;20005;-76
2023/02/08 03:41:24;;;;;;;21.48;9.90;;;;;;;-4.87;100.00;94049.09;6182101;23;20063;-76
2023/02/08 03:43:56;;;;;;;19.92;9.43;;;;;;;-4.91;100.00;94044.44;6184191;23;20016;-76
2023/02/08 03:46:33;;;;;;;17.50;8.82;;;;;;;-4.97;100.00;94040.75;6184897;23;20013;-76
2023/02/08 03:49:07;;;;;;;20.08;9.18;;;;;;;-4.98;100.00;94044.25;6184487;23;20032;-76
2023/02/08 03:51:37;;;;;;;18.35;9.50;;;;;;;-5.01;100.00;94039.44;6184507;23;20040;-76
2023/02/08 03:54:09;;;;;;;17.52;9.25;;;;;;;-4.99;100.00;94046.97;6184029;23;20139;-76
2023/02/08 03:56:45;;;;;;;16.73;10.20;;;;;;;-5.02;100.00;94041.22;6184467;23;20375;-76
2023/02/08 03:59:17;;;;;;;20.35;9.35;;;;;;;-5.02;100.00;94038.66;6157411;23;20396;-76
2023/02/08 04:01:54;;;;;;;19.10;9.32;;;;;;;-4.98;100.00;94039.13;6183915;23;20013;-76
2023/02/08 04:04:20;;;;;;;21.80;9.75;;;;;;;-4.99;100.00;94046.97;6184552;23;20081;-76
2023/02/08 04:06:46;;;;;;;16.55;9.10;;;;;;;-4.98;100.00;94039.13;6184487;23;20468;-76
2023/02/08 04:09:12;;;;;;;16.77;9.43;;;;;;;-4.92;100.00;94035.19;6183854;23;20049;-76
2023/02/08 04:11:37;;;;;;;18.63;10.70;;;;;;;-4.95;100.00;94028.63;6157778;23;20027;-76
2023/02/08 04:14:03;;;;;;;17.23;10.07;;;;;;;-4.98;100.00;94033.22;6184392;23;20020;-76
2023/02/08 04:16:28;;;;;;;20.17;10.30;;;;;;;-5.01;100.00;94026.69;6184500;23;20005;-76
2023/02/08 04:18:54;;;;;;;24.10;10.52;;;;;;;-5.00;100.00;94030.81;6184372;23;20437;-76
2023/02/08 04:21:20;;;;;;;18.58;10.15;;;;;;;-5.02;100.00;94027.66;6183912;23;19997;-76
2023/02/08 04:23:46;;;;;;;18.95;10.18;;;;;;;-5.03;100.00;94029.38;6183866;23;20040;-76
2023/02/08 04:26:12;;;;;;;22.13;9.93;;;;;;;-5.01;100.00;94024.13;6133592;23;20001;-76
2023/02/08 04:28:37;;;;;;;20.17;10.50;;;;;;;-5.04;100.00;94019.34;6183964;23;20021;-76
2023/02/08 04:31:03;;;;;;;18.95;10.00;;;;;;;-5.03;100.00;94023.47;6157715;23;20400;-76
2023/02/08 04:33:28;;;;;;;22.25;10.35;;;;;;;-5.10;100.00;94014.84;6157908;23;20013;-76
2023/02/08 04:35:54;;;;;;;20.25;10.30;;;;;;;-5.11;100.00;94020.88;6157905;23;20017;-76
2023/02/08 04:38:20;;;;;;;19.52;10.40;;;;;;;-5.13;100.00;94020.25;6183631;23;20013;-76
2023/02/08 04:40:45;;;;;;;20.20;10.52;;;;;;;-5.15;100.00;94029.81;6183870;23;20004;-76
2023/02/08 04:43:11;;;;;;;23.15;10.73;;;;;;;-5.18;100.00;94027.56;6184180;23;20020;-76
2023/02/08 04:45:36;;;;;;;19.98;9.95;;;;;;;-5.20;100.00;94026.91;6184220;23;20080;-76
2023/02/08 04:48:03;;;;;;;20.23;10.82;;;;;;;-5.22;100.00;94021.97;6157960;23;20468;-76
2023/02/08 04:50:29;;;;;;;21.25;10.70;;;;;;;-5.20;100.00;94025.16;6183459;23;20001;-76
2023/02/08 04:52:54;;;;;;;21.10;10.88;;;;;;;-5.20;100.00;94024.34;6183717;23;20021;-76
2023/02/08 04:55:20;;;;;;;20.98;10.48;;;;;;;-5.19;100.00;94020.84;6157692;23;20005;-76
2023/02/08 04:57:45;;;;;;;22.30;11.50;;;;;;;-5.20;100.00;94020.06;6183970;23;20028;-76
2023/02/08 05:00:12;;;;;;;21.20;10.88;;;;;;;-5.19;100.00;94015.75;6183470;23;20009;-76
2023/02/08 05:02:37;;;;;;;20.92;10.60;;;;;;;-5.19;100.00;94006.34;6183968;23;20349;-76
2023/02/08 05:05:03;;;;;;;20.38;10.65;;;;;;;-5.20;100.00;94014.13;6183674;23;20004;-76
2023/02/08 05:07:29;;;;;;;21.77;11.05;;;;;;;-5.20;100.00;94014.13;6183327;23;20023;-76
2023/02/08 05:09:54;;;;;;;21.77;11.73;;;;;;;-5.22;100.00;94009.19;6183154;23;20045;-76
2023/02/08 05:12:20;;;;;;;22.08;11.93;;;;;;;-5.21;100.00;94007.44;6183476;23;20029;-76
2023/02/08 05:14:46;;;;;;;21.48;11.15;;;;;;;-5.24;100.00;94004.25;6183904;23;20424;-76
2023/02/08 05:17:11;;;;;;;22.02;11.23;;;;;;;-5.24;100.00;94004.25;6184203;23;20024;-76
2023/02/08 05:19:37;;;;;;;20.02;11.60;;;;;;;-5.24;100.00;94014.44;6183813;23;20341;-76
2023/02/08 05:22:02;;;;;;;26.00;10.93;;;;;;;-5.20;100.00;94002.19;6183278;23;20147;-76
2023/02/08 05:24:28;;;;;;;24.58;11.20;;;;;;;-5.21;100.00;94000.56;6157340;23;20005;-76
2023/02/08 05:26:53;;;;;;;20.92;12.13;;;;;;;-5.23;100.00;94010.13;6183659;23;20012;-76
2023/02/08 05:29:19;;;;;;;24.20;11.57;;;;;;;-5.24;100.00;94006.00;6183877;23;20071;-76
2023/02/08 05:31:44;;;;;;;22.27;11.00;;;;;;;-5.24;100.00;94009.34;6182038;23;20071;-76
2023/02/08 05:34:11;;;;;;;20.08;11.48;;;;;;;-5.25;100.00;94010.31;6157162;23;20001;-76
2023/02/08 05:36:36;;;;;;;24.35;11.65;;;;;;;-5.27;100.00;93999.44;6157219;23;20401;-76
2023/02/08 05:39:03;;;;;;;19.75;11.18;;;;;;;-5.20;100.00;94004.75;6157308;23;20084;-76
2023/02/08 05:41:28;;;;;;;19.48;11.45;;;;;;;-5.20;100.00;94009.03;6157364;23;20017;-76
2023/02/08 05:43:54;;;;;;;22.20;11.27;;;;;;;-5.24;100.00;94006.00;6183241;23;20005;-76
2023/02/08 05:46:19;;;;;;;24.33;11.10;;;;;;;-5.26;100.00;94013.81;6156512;23;20013;-78
2023/02/08 05:48:45;;;;;;;19.92;10.85;;;;;;;-5.26;100.00;94016.34;6180562;23;20001;-77
2023/02/08 05:51:11;;;;;;;19.20;10.98;;;;;;;-5.27;100.00;94007.09;6155700;23;20020;-77
2023/02/08 05:53:36;;;;;;;20.83;11.75;;;;;;;-5.27;100.00;94014.75;6182784;23;20429;-77
2023/02/08 05:56:02;;;;;;;24.80;11.88;;;;;;;-5.28;100.00;94015.69;6181578;23;20025;-77
2023/02/08 05:58:32;;;;;;;21.38;11.10;;;;;;;-5.30;100.00;94009.16;6156643;23;20005;-77
2023/02/08 06:00:57;;;;;;;20.55;11.32;;;;;;;-5.30;100.00;94020.16;6155157;23;20063;-77
2023/02/08 06:03:23;;;;;;;24.05;11.27;;;;;;;-5.32;100.00;94023.81;6156111;23;20043;-78
2023/02/08 06:05:49;;;;;;;20.48;10.85;;;;;;;-5.33;100.00;94028.13;6183289;23;20171;-76
2023/02/08 06:08:14;;;;;;;20.75;11.63;;;;;;;-5.33;100.00;94030.69;6158872;23;20132;-77
2023/02/08 06:10:40;;;;;;;20.10;11.18;;;;;;;-5.32;100.00;94032.28;6160556;23;20201;-78
2023/02/08 06:13:05;;;;;;;21.45;11.80;;;;;;;-5.32;100.00;94042.47;6137169;23;20005;-78
2023/02/08 06:15:31;;;;;;;22.88;12.02;;;;;;;-5.34;100.00;94044.38;6159889;23;20017;-78
2023/02/08 06:17:56;;;;;;;24.17;12.23;;;;;;;-5.33;100.00;94040.91;6186218;23;20005;-78
2023/02/08 06:20:22;;;;;;;21.52;12.18;;;;;;;-5.34;100.00;94041.81;6159876;23;20144;-77
2023/02/08 06:22:48;;;;;;;19.33;11.75;;;;;;;-5.37;100.00;94029.38;6155483;23;20001;-77
2023/02/08 06:25:14;;;;;;;20.50;11.13;;;;;;;-5.33;100.00;94040.91;6181794;23;20070;-77
2023/02/08 06:27:39;;;;;;;25.08;12.32;;;;;;;-5.36;100.00;94025.84;6129294;23;20005;-77
2023/02/08 06:30:05;;;;;;;20.60;12.00;;;;;;;-5.29;100.00;94037.09;6183602;23;20017;-77
2023/02/08 06:32:31;;;;;;;19.90;11.00;;;;;;;-5.30;100.00;94038.03;6158775;23;20100;-77
2023/02/08 06:34:57;;;;;;;24.55;11.40;;;;;;;-5.25;100.00;94038.41;6159617;23;20023;-77
2023/02/08 06:37:22;;;;;;;24.85;12.52;;;;;;;-5.25;100.00;94035.84;6158786;23;20087;-76
2023/02/08 06:39:49;;;;;;;19.65;11.90;;;;;;;-5.24;100.00;94034.88;6156474;23;20055;-76
2023/02/08 06:42:15;;;;;;;24.63;12.00;;;;;;;-5.21;100.00;94040.63;6182971;23;20319;-76
2023/02/08 06:44:40;;;;;;;24.88;12.40;;;;;;;-5.18;100.00;94035.22;6182760;23;20032;-76
2023/02/08 06:47:06;;;;;;;22.75;12.57;;;;;;;-5.17;100.00;94035.06;6182870;23;20095;-76
2023/02/08 06:49:32;;;;;;;24.63;12.52;;;;;;;-5.12;100.00;94032.84;6131908;23;20017;-76
2023/02/08 06:51:57;;;;;;;24.60;12.25;;;;;;;-5.04;100.00;94027.00;6156389;23;20298;-75
2023/02/08 06:54:23;;;;;;;23.23;12.65;;;;;;;-4.89;100.00;94027.19;6183249;23;20088;-75
2023/02/08 06:56:48;;;;;;;20.90;12.45;;;;;;;-4.70;100.00;94026.16;6156406;23;20011;-75
2023/02/08 06:59:14;;;;;;;25.65;12.98;;;;;;;-4.37;100.00;94034.69;6131813;23;20063;-76
2023/02/08 07:01:40;;;;;;;26.55;12.90;;;;;;;-3.93;100.00;94031.06;6130969;23;20000;-76
2023/02/08 07:04:06;;;;;;;29.85;14.55;;;;;;;-3.42;100.00;94031.69;6156835;23;20036;-76
2023/02/08 07:06:32;;;;;;;28.15;14.48;;;;;;;-2.93;98.87;94023.84;6182565;23;20017;-76
2023/02/08 07:08:58;;;;;;;27.83;14.00;;;;;;;-2.43;94.60;94027.00;6181331;23;20013;-76
2023/02/08 07:11:24;;;;;;;24.45;15.10;;;;;;;-2.03;89.63;94031.06;6180346;23;20020;-76
2023/02/08 07:13:50;;;;;;;25.48;13.60;;;;;;;-1.71;85.36;94042.09;6106466;23;20024;-76
2023/02/08 07:16:18;;;;;;;21.33;13.05;;;;;;;-1.31;82.53;94033.22;6181280;23;20131;-76
2023/02/08 07:18:44;;;;;;;26.10;13.63;;;;;;;-0.94;80.34;94028.22;6153876;23;20387;-76
2023/02/08 07:21:13;;;;;;;24.70;13.07;;;;;;;-0.52;80.10;94029.31;6132622;23;20132;-76
2023/02/08 07:23:39;;;;;;;22.77;12.93;;;;;;;-0.68;76.93;94032.88;6158771;23;20020;-76
2023/02/08 07:26:07;;;;;;;23.63;13.85;;;;;;;-0.88;76.22;94032.63;6132505;23;20059;-76
2023/02/08 07:28:33;;;;;;;31.08;13.05;;;;;;;-0.92;77.80;94033.97;6156734;23;20522;-76
2023/02/08 07:30:59;;;;;;;21.15;13.02;;;;;;;-1.07;77.99;94039.09;6182130;23;20002;-76
2023/02/08 07:33:25;;;;;;;26.55;14.18;;;;;;;-1.27;78.72;94031.09;6183242;23;20079;-76
2023/02/08 07:35:50;;;;;;;22.85;12.98;;;;;;;-1.43;78.73;94033.84;6182953;23;20017;-76
2023/02/08 07:38:17;;;;;;;24.30;13.80;;;;;;;-1.60;79.75;94039.13;6182713;23;20023;-75
2023/02/08 07:40:43;;;;;;;25.33;13.88;;;;;;;-1.76;81.15;94040.03;6182489;23;20438;-76
2023/02/08 07:43:08;;;;;;;26.58;13.20;;;;;;;-1.88;82.32;94042.22;6158641;23;20026;-77
2023/02/08 07:45:44;;;;;;;23.95;13.63;;;;;;;-1.93;83.23;94034.22;6156000;23;20556;-76
2023/02/08 07:48:09;;;;;;;23.60;13.60;;;;;;;-2.00;84.67;94035.09;6181521;23;20040;-75
2023/02/08 07:50:35;;;;;;;25.73;14.90;;;;;;;-2.06;86.02;94028.88;6130313;23;20009;-75
2023/02/08 07:53:01;;;;;;;28.42;15.27;;;;;;;-2.06;86.59;94028.06;6154318;23;20099;-76
2023/02/08 07:55:26;;;;;;;25.10;14.38;;;;;;;-2.06;86.54;94023.72;6154313;23;20012;-77
2023/02/08 07:57:55;;;;;;;27.02;15.35;;;;;;;-2.21;89.30;94031.34;6181116;23;20327;-77
2023/02/08 08:00:21;;;;;;;28.27;15.05;;;;;;;-2.11;87.91;94026.03;6155710;23;20001;-76
2023/02/08 08:02:49;;;;;;;24.38;14.82;;;;;;;-2.11;87.52;94026.03;6156526;23;20338;-77
2023/02/08 08:05:15;;;;;;;22.20;11.52;;;;;;;-1.94;87.44;94026.69;6183020;23;20433;-77
2023/02/08 08:07:41;;;;;;;25.30;14.93;;;;;;;-2.16;87.07;94023.97;6156530;23;20013;-76
2023/02/08 08:10:08;;;;;;;26.20;14.15;;;;;;;-2.22;86.08;94034.13;6182618;23;20028;-75
2023/02/08 08:12:33;;;;;;;26.80;12.85;;;;;;;-2.27;87.97;94032.06;6182698;23;20429;-76
2023/02/08 08:14:59;;;;;;;22.20;11.60;;;;;;;-2.17;87.00;94029.25;6180673;23;20063;-76
2023/02/08 08:17:24;;;;;;;23.67;13.38;;;;;;;-2.26;87.53;94031.06;6155109;23;20013;-76
2023/02/08 09:11:21;;;;;;;26.40;16.23;;;;;;;-1.71;86.68;94021.56;6165866;22;1335178;-79
2023/02/08 09:13:50;;;;;;;25.42;14.73;;;;;;;-1.64;85.96;94022.47;6226147;23;20019;-79
2023/02/08 09:16:16;;;;;;;25.40;14.25;;;;;;;-1.70;87.34;94018.81;6199927;23;20004;-79
2023/02/08 09:18:42;;;;;;;17.00;10.55;;;;;;;-1.71;86.63;94029.28;6226771;23;20016;-79
2023/02/08 09:21:10;;;;;;;25.08;14.05;;;;;;;-1.72;86.98;94025.09;6223823;23;19996;-79
2023/02/08 09:23:37;;;;;;;25.75;13.68;;;;;;;-1.73;86.79;94029.44;6227422;23;20012;-79
2023/02/08 09:26:07;;;;;;;26.73;15.13;;;;;;;-1.69;85.02;94033.25;6226732;23;20027;-79
2023/02/08 09:28:33;;;;;;;25.65;15.00;;;;;;;-1.56;84.02;94029.28;6227715;23;20016;-79
2023/02/08 09:31:00;;;;;;;22.00;13.13;;;;;;;-1.36;84.30;94027.03;6201303;23;20436;-79
2023/02/08 09:33:27;;;;;;;26.85;12.45;;;;;;;-1.10;82.87;94029.97;6227459;23;20362;-79
2023/02/08 09:35:52;;;;;;;21.52;12.18;;;;;;;-1.15;82.73;94028.91;6200296;23;20000;-81
2023/02/08 09:38:18;;;;;;;25.15;14.20;;;;;;;-1.01;82.25;94028.13;6200267;23;20042;-79
2023/02/08 09:40:47;;;;;;;23.23;11.82;;;;;;;-0.93;81.74;94028.03;6199954;23;19996;-79
2023/02/08 09:43:19;;;;;;;24.60;14.48;;;;;;;-0.93;80.76;94030.59;6226559;23;20061;-79
2023/02/08 09:45:56;;;;;;;15.07;8.73;;;;;;;-0.80;77.99;94035.13;6227567;23;20012;-79
2023/02/08 09:48:39;;;;;;;20.77;12.50;;;;;;;-0.72;78.13;94035.03;6226954;23;20463;-79
2023/02/08 09:51:14;;;;;;;23.50;14.40;;;;;;;-0.57;76.57;94032.44;6200480;23;20024;-79
2023/02/08 09:53:46;;;;;;;20.42;11.02;;;;;;;-0.42;76.90;94034.97;6228086;23;20027;-79
2023/02/08 09:56:15;;;;;;;20.55;13.10;;;;;;;-0.24;73.84;94037.97;6201486;23;20467;-79
2023/02/08 09:58:42;;;;;;;35.75;13.45;;;;;;;0.07;73.64;94041.22;6227808;23;20015;-79
2023/02/08 10:01:17;;;;;;;26.80;14.48;;;;;;;0.23;70.77;94029.91;6227271;23;20489;-79
2023/02/08 10:03:44;;;;;;;25.63;13.98;;;;;;;0.15;72.03;94035.97;6226962;23;20012;-79
2023/02/08 10:06:13;;;;;;;18.88;11.07;;;;;;;-0.03;72.62;94041.53;6227403;23;20027;-79
2023/02/08 10:08:42;;;;;;;20.58;12.57;;;;;;;-0.04;71.94;94045.09;6226822;23;20023;-79
2023/02/08 10:11:19;;;;;;;23.17;12.25;;;;;;;0.04;71.07;94047.53;6197549;23;20039;-79
2023/02/08 10:14:07;;;;;;;20.08;10.77;;;;;;;0.20;67.49;94037.03;6194198;23;20136;-79
2023/02/08 10:16:35;;;;;;;22.60;13.23;;;;;;;0.20;68.26;94036.19;6221224;23;20462;-79
2023/02/08 10:19:13;;;;;;;14.70;8.25;;;;;;;0.40;65.86;94032.00;6194402;23;19993;-79
2023/02/08 10:22:03;;;;;;;14.52;9.02;;;;;;;1.02;64.46;94032.28;6220603;23;20083;-79
2023/02/08 10:24:58;;;;;;;18.90;11.68;;;;;;;1.15;61.60;94023.81;6221326;23;20009;-79
2023/02/08 10:27:39;;;;;;;16.88;11.27;;;;;;;1.37;61.30;94030.47;6173774;23;20024;-79
2023/02/08 10:30:12;;;;;;;14.55;8.95;;;;;;;1.35;60.88;94029.88;6221343;23;20016;-79
2023/02/08 10:32:49;;;;;;;14.15;8.00;;;;;;;1.76;59.65;94030.84;6221183;23;20067;-79
2023/02/08 10:35:34;;;;;;;12.68;7.65;;;;;;;1.55;57.35;94024.78;6221834;23;20467;-79
2023/02/08 10:37:59;;;;;;;17.25;9.05;;;;;;;1.22;55.83;94027.25;6221824;23;20019;-79
2023/02/08 10:40:39;;;;;;;19.08;10.48;;;;;;;1.39;56.24;94031.06;6222306;23;19996;-79
2023/02/08 10:43:10;;;;;;;15.65;8.55;;;;;;;1.77;56.74;94027.25;6221864;23;20345;-79
2023/02/08 10:45:51;;;;;;;19.15;11.25;;;;;;;1.67;55.01;94027.63;6222290;23;20070;-79
2023/02/08 10:48:32;;;;;;;19.75;10.70;;;;;;;1.73;53.88;94013.94;6195470;23;20031;-79
2023/02/08 10:50:57;;;;;;;19.92;11.23;;;;;;;1.53;57.99;94025.97;6195509;23;20059;-79
2023/02/08 10:53:23;;;;;;;13.57;8.52;;;;;;;2.02;55.45;94019.78;6223917;23;20053;-79
2023/02/08 10:55:49;;;;;;;19.95;11.15;;;;;;;1.87;55.04;94025.13;6222596;23;20096;-79
2023/02/08 10:58:18;;;;;;;23.08;10.38;;;;;;;1.96;52.80;94025.72;6196451;23;20015;-79
2023/02/08 11:00:45;;;;;;;19.48;12.43;;;;;;;1.95;56.29;94018.97;6223427;23;20016;-79
2023/02/08 11:03:28;;;;;;;21.10;10.65;;;;;;;1.99;55.96;94012.41;6196329;23;20004;-79
2023/02/08 11:05:54;;;;;;;22.52;12.43;;;;;;;2.14;56.27;94017.41;6197866;23;20235;-79
2023/02/08 11:08:27;;;;;;;15.88;8.15;;;;;;;2.15;54.49;94006.88;6224516;23;20000;-79
2023/02/08 11:11:04;;;;;;;15.82;9.73;;;;;;;1.81;53.54;94012.97;6195023;23;20020;-78
2023/02/08 11:13:43;;;;;;;9.82;7.00;;;;;;;2.09;51.83;94010.25;6220503;23;20044;-79
2023/02/08 11:16:31;;;;;;;17.58;10.98;;;;;;;1.97;53.26;94006.66;6223201;23;20475;-78
2023/02/08 11:19:00;;;;;;;21.35;10.00;;;;;;;1.85;53.56;94009.81;6222300;23;20051;-78
2023/02/08 11:21:32;;;;;;;14.30;7.80;;;;;;;2.00;52.94;94012.22;6222900;23;20023;-79
2023/02/08 11:24:00;;;;;;;17.65;10.13;;;;;;;2.54;51.64;94007.09;6222637;23;20038;-79
2023/02/08 11:26:26;;;;;;;11.00;7.07;;;;;;;2.19;52.33;94002.13;6222194;23;20096;-79
2023/02/08 11:29:10;;;;;;;14.90;8.88;;;;;;;2.18;50.10;94003.88;6220917;23;20009;-80
2023/02/08 11:31:36;;;;;;;15.10;9.40;;;;;;;2.23;49.94;93996.38;6221194;23;20026;-79
2023/02/08 11:34:05;;;;;;;15.57;8.65;;;;;;;2.06;50.81;93995.16;6195804;23;20028;-78
2023/02/08 11:36:33;;;;;;;14.07;8.85;;;;;;;2.22;50.49;93992.16;6223394;23;20015;-80
2023/02/08 11:39:35;;;;;;;17.50;10.75;;;;;;;2.45;50.45;93991.78;6221766;23;19994;-80
2023/02/08 11:42:03;;;;;;;9.25;6.07;;;;;;;1.74;49.46;93988.94;6222019;23;20012;-79
2023/02/08 11:44:35;;;;;;;16.25;10.52;;;;;;;1.44;50.80;93994.38;6223623;23;20008;-80
2023/02/08 11:47:06;;;;;;;21.27;10.13;;;;;;;1.54;51.46;93996.59;6223684;23;20091;-80
2023/02/08 11:49:38;;;;;;;17.42;9.25;;;;;;;1.74;51.01;93992.28;6195014;23;20009;-80
2023/02/08 11:52:06;;;;;;;23.70;10.68;;;;;;;2.17;49.97;93989.41;6222149;23;20061;-80
2023/02/08 11:54:39;;;;;;;19.33;9.85;;;;;;;2.33;46.59;93987.44;6195673;23;19996;-80
2023/02/08 11:57:18;;;;;;;12.68;7.78;;;;;;;2.70;47.63;93980.84;6222243;23;20008;-80
2023/02/08 11:59:47;;;;;;;13.73;7.28;;;;;;;2.89;46.39;93979.22;6221077;23;20399;-79
2023/02/08 12:02:27;;;;;;;10.75;7.05;;;;;;;3.08;45.15;93988.72;6221724;23;20462;-79
2023/02/08 12:04:53;;;;;;;15.60;8.93;;;;;;;3.13;44.31;93981.16;6221778;23;20527;-79
2023/02/08 12:07:44;;;;;;;13.68;7.68;;;;;;;3.05;42.80;93963.25;6221709;23;20004;-79
2023/02/08 12:10:16;;;;;;;18.60;9.65;;;;;;;2.72;43.52;93968.50;6193349;23;20016;-79
2023/02/08 12:13:09;;;;;;;11.47;6.50;;;;;;;3.22;43.66;93968.00;6194583;23;20410;-80
2023/02/08 12:16:02;;;;;;;14.68;7.22;;;;;;;3.00;44.34;93965.69;6221310;23;20336;-79
2023/02/08 12:18:39;;;;;;;13.15;7.63;;;;;;;2.66;44.04;93964.94;6193977;23;20484;-79
2023/02/08 12:21:17;;;;;;;16.55;7.22;;;;;;;3.02;44.28;93958.50;6222689;23;20009;-79
2023/02/08 12:23:59;;;;;;;11.77;6.38;;;;;;;2.72;44.63;93968.50;6221514;23;20083;-79
2023/02/08 12:26:43;;;;;;;12.57;6.57;;;;;;;2.95;45.72;93962.09;6194360;23;20060;-78
2023/02/08 12:29:41;;;;;;;17.05;8.68;;;;;;;2.96;45.31;93954.13;6194594;23;20253;-79